sensor_id;sensor_type;location;lat;lon;timestamp;P1;durP1;ratioP1;P2;durP2;ratioP2
9675;SDS011;4876;42.656;23.292;2023-05-19T00:00:55;5.27;;;4.77;;
9675;SDS011;4876;42.656;23.292;2023-05-19T00:03:23;6.30;;;5.43;;
9675;SDS011;4876;42.656;23.292;2023-05-19T00:05:51;9.87;;;5.50;;
9675;SDS011;4876;42.656;23.292;2023-05-19T00:08:19;8.37;;;5.20;;
9675;SDS011;4876;42.656;23.292;2023-05-19T00:10:48;8.07;;;5.33;;
9675;SDS011;4876;42.656;23.292;2023-05-19T00:13:17;6.17;;;5.27;;
9675;SDS011;4876;42.656;23.292;2023-05-19T00:15:45;5.30;;;4.80;;
9675;SDS011;4876;42.656;23.292;2023-05-19T00:18:12;7.00;;;5.27;;
9675;SDS011;4876;42.656;23.292;2023-05-19T00:20:40;8.07;;;5.20;;
9675;SDS011;4876;42.656;23.292;2023-05-19T00:23:07;5.43;;;4.47;;
9675;SDS011;4876;42.656;23.292;2023-05-19T00:25:34;6.63;;;5.83;;
9675;SDS011;4876;42.656;23.292;2023-05-19T00:28:01;7.50;;;6.00;;
9675;SDS011;4876;42.656;23.292;2023-05-19T00:30:29;6.40;;;5.27;;
9675;SDS011;4876;42.656;23.292;2023-05-19T00:32:56;7.07;;;5.47;;
9675;SDS011;4876;42.656;23.292;2023-05-19T00:35:23;11.20;;;5.93;;
9675;SDS011;4876;42.656;23.292;2023-05-19T00:37:50;7.37;;;5.17;;
9675;SDS011;4876;42.656;23.292;2023-05-19T00:40:17;6.23;;;4.73;;
9675;SDS011;4876;42.656;23.292;2023-05-19T00:42:43;9.87;;;5.10;;
9675;SDS011;4876;42.656;23.292;2023-05-19T00:45:10;6.20;;;5.30;;
9675;SDS011;4876;42.656;23.292;2023-05-19T00:47:38;8.23;;;5.33;;
9675;SDS011;4876;42.656;23.292;2023-05-19T00:50:05;5.60;;;4.80;;
9675;SDS011;4876;42.656;23.292;2023-05-19T00:52:32;5.73;;;5.10;;
9675;SDS011;4876;42.656;23.292;2023-05-19T00:54:59;6.27;;;4.90;;
9675;SDS011;4876;42.656;23.292;2023-05-19T00:57:26;5.20;;;4.70;;
9675;SDS011;4876;42.656;23.292;2023-05-19T00:59:53;6.83;;;4.60;;
9675;SDS011;4876;42.656;23.292;2023-05-19T01:02:20;5.07;;;4.57;;
9675;SDS011;4876;42.656;23.292;2023-05-19T01:04:48;10.93;;;4.70;;
9675;SDS011;4876;42.656;23.292;2023-05-19T01:07:17;4.57;;;4.17;;
9675;SDS011;4876;42.656;23.292;2023-05-19T01:09:45;6.47;;;4.63;;
9675;SDS011;4876;42.656;23.292;2023-05-19T01:12:12;5.90;;;5.30;;
9675;SDS011;4876;42.656;23.292;2023-05-19T01:14:39;9.30;;;5.20;;
9675;SDS011;4876;42.656;23.292;2023-05-19T01:17:08;5.70;;;5.07;;
9675;SDS011;4876;42.656;23.292;2023-05-19T01:19:55;7.53;;;5.33;;
9675;SDS011;4876;42.656;23.292;2023-05-19T01:25:34;6.33;;;5.23;;
9675;SDS011;4876;42.656;23.292;2023-05-19T01:28:22;6.43;;;4.77;;
9675;SDS011;4876;42.656;23.292;2023-05-19T01:30:59;8.20;;;5.63;;
9675;SDS011;4876;42.656;23.292;2023-05-19T01:33:28;6.53;;;5.37;;
9675;SDS011;4876;42.656;23.292;2023-05-19T01:35:58;6.03;;;5.43;;
9675;SDS011;4876;42.656;23.292;2023-05-19T01:38:27;7.87;;;5.50;;
9675;SDS011;4876;42.656;23.292;2023-05-19T01:40:55;5.90;;;5.30;;
9675;SDS011;4876;42.656;23.292;2023-05-19T01:43:23;6.80;;;5.50;;
9675;SDS011;4876;42.656;23.292;2023-05-19T01:45:51;8.40;;;5.60;;
9675;SDS011;4876;42.656;23.292;2023-05-19T01:48:21;6.20;;;5.60;;
9675;SDS011;4876;42.656;23.292;2023-05-19T01:50:49;6.07;;;5.47;;
9675;SDS011;4876;42.656;23.292;2023-05-19T01:53:16;7.80;;;5.60;;
9675;SDS011;4876;42.656;23.292;2023-05-19T01:55:43;10.13;;;6.70;;
9675;SDS011;4876;42.656;23.292;2023-05-19T01:58:14;10.13;;;5.90;;
9675;SDS011;4876;42.656;23.292;2023-05-19T02:00:50;8.17;;;5.80;;
9675;SDS011;4876;42.656;23.292;2023-05-19T02:03:23;7.20;;;5.97;;
9675;SDS011;4876;42.656;23.292;2023-05-19T02:05:58;8.30;;;6.53;;
9675;SDS011;4876;42.656;23.292;2023-05-19T02:08:37;7.23;;;6.50;;
9675;SDS011;4876;42.656;23.292;2023-05-19T02:11:10;7.80;;;6.30;;
9675;SDS011;4876;42.656;23.292;2023-05-19T02:13:45;10.10;;;6.87;;
9675;SDS011;4876;42.656;23.292;2023-05-19T02:16:18;11.07;;;6.97;;
9675;SDS011;4876;42.656;23.292;2023-05-19T02:18:49;8.73;;;7.13;;
9675;SDS011;4876;42.656;23.292;2023-05-19T02:21:17;9.37;;;6.93;;
9675;SDS011;4876;42.656;23.292;2023-05-19T02:23:45;11.43;;;7.10;;
9675;SDS011;4876;42.656;23.292;2023-05-19T02:26:13;11.33;;;7.23;;
9675;SDS011;4876;42.656;23.292;2023-05-19T02:28:40;9.63;;;7.33;;
9675;SDS011;4876;42.656;23.292;2023-05-19T02:31:06;8.67;;;7.57;;
9675;SDS011;4876;42.656;23.292;2023-05-19T02:33:34;7.60;;;6.70;;
9675;SDS011;4876;42.656;23.292;2023-05-19T02:36:03;9.47;;;7.33;;
9675;SDS011;4876;42.656;23.292;2023-05-19T02:38:30;9.60;;;7.70;;
9675;SDS011;4876;42.656;23.292;2023-05-19T02:40:57;10.50;;;8.47;;
9675;SDS011;4876;42.656;23.292;2023-05-19T02:43:23;9.57;;;8.40;;
9675;SDS011;4876;42.656;23.292;2023-05-19T02:45:50;10.03;;;7.97;;
9675;SDS011;4876;42.656;23.292;2023-05-19T02:48:17;9.80;;;8.80;;
9675;SDS011;4876;42.656;23.292;2023-05-19T02:50:44;12.00;;;9.23;;
9675;SDS011;4876;42.656;23.292;2023-05-19T02:53:12;13.80;;;9.03;;
9675;SDS011;4876;42.656;23.292;2023-05-19T02:55:38;13.30;;;9.13;;
9675;SDS011;4876;42.656;23.292;2023-05-19T02:58:05;10.20;;;9.00;;
9675;SDS011;4876;42.656;23.292;2023-05-19T03:00:32;12.53;;;9.70;;
9675;SDS011;4876;42.656;23.292;2023-05-19T03:02:59;12.60;;;9.63;;
9675;SDS011;4876;42.656;23.292;2023-05-19T03:05:28;12.30;;;9.97;;
9675;SDS011;4876;42.656;23.292;2023-05-19T03:07:55;11.93;;;9.50;;
9675;SDS011;4876;42.656;23.292;2023-05-19T03:10:23;14.30;;;10.40;;
9675;SDS011;4876;42.656;23.292;2023-05-19T03:12:50;13.77;;;9.53;;
9675;SDS011;4876;42.656;23.292;2023-05-19T03:15:17;12.20;;;9.27;;
9675;SDS011;4876;42.656;23.292;2023-05-19T03:17:44;11.80;;;9.43;;
9675;SDS011;4876;42.656;23.292;2023-05-19T03:20:11;12.83;;;9.67;;
9675;SDS011;4876;42.656;23.292;2023-05-19T03:22:39;10.53;;;9.37;;
9675;SDS011;4876;42.656;23.292;2023-05-19T03:25:06;12.27;;;9.27;;
9675;SDS011;4876;42.656;23.292;2023-05-19T03:27:35;10.57;;;9.10;;
9675;SDS011;4876;42.656;23.292;2023-05-19T03:30:02;10.80;;;9.40;;
9675;SDS011;4876;42.656;23.292;2023-05-19T03:32:29;11.50;;;9.40;;
9675;SDS011;4876;42.656;23.292;2023-05-19T03:34:56;11.17;;;9.60;;
9675;SDS011;4876;42.656;23.292;2023-05-19T03:37:23;10.33;;;9.13;;
9675;SDS011;4876;42.656;23.292;2023-05-19T03:39:50;10.10;;;8.90;;
9675;SDS011;4876;42.656;23.292;2023-05-19T03:42:17;12.27;;;9.00;;
9675;SDS011;4876;42.656;23.292;2023-05-19T03:44:45;9.90;;;8.90;;
9675;SDS011;4876;42.656;23.292;2023-05-19T03:47:12;13.97;;;9.27;;
9675;SDS011;4876;42.656;23.292;2023-05-19T03:49:39;12.17;;;9.00;;
9675;SDS011;4876;42.656;23.292;2023-05-19T03:52:06;14.17;;;9.57;;
9675;SDS011;4876;42.656;23.292;2023-05-19T03:54:33;9.73;;;8.57;;
9675;SDS011;4876;42.656;23.292;2023-05-19T03:57:01;9.80;;;8.80;;
9675;SDS011;4876;42.656;23.292;2023-05-19T03:59:28;10.67;;;8.60;;
9675;SDS011;4876;42.656;23.292;2023-05-19T04:01:56;10.13;;;8.40;;
9675;SDS011;4876;42.656;23.292;2023-05-19T04:04:23;10.43;;;8.70;;
9675;SDS011;4876;42.656;23.292;2023-05-19T04:06:50;9.70;;;8.70;;
9675;SDS011;4876;42.656;23.292;2023-05-19T04:09:17;12.10;;;8.40;;
9675;SDS011;4876;42.656;23.292;2023-05-19T04:11:44;9.90;;;8.37;;
9675;SDS011;4876;42.656;23.292;2023-05-19T04:14:11;11.27;;;8.10;;
9675;SDS011;4876;42.656;23.292;2023-05-19T04:16:38;9.60;;;8.37;;
9675;SDS011;4876;42.656;23.292;2023-05-19T04:19:07;10.47;;;8.27;;
9675;SDS011;4876;42.656;23.292;2023-05-19T04:21:33;11.03;;;8.83;;
9675;SDS011;4876;42.656;23.292;2023-05-19T04:24:00;10.20;;;8.63;;
9675;SDS011;4876;42.656;23.292;2023-05-19T04:26:30;13.80;;;9.07;;
9675;SDS011;4876;42.656;23.292;2023-05-19T04:28:58;10.47;;;9.30;;
9675;SDS011;4876;42.656;23.292;2023-05-19T04:31:25;17.87;;;9.43;;
9675;SDS011;4876;42.656;23.292;2023-05-19T04:33:52;11.43;;;9.50;;
9675;SDS011;4876;42.656;23.292;2023-05-19T04:36:20;9.57;;;8.53;;
9675;SDS011;4876;42.656;23.292;2023-05-19T04:38:48;9.80;;;8.67;;
9675;SDS011;4876;42.656;23.292;2023-05-19T04:41:18;14.10;;;9.30;;
9675;SDS011;4876;42.656;23.292;2023-05-19T04:43:45;13.67;;;9.03;;
9675;SDS011;4876;42.656;23.292;2023-05-19T04:46:14;10.03;;;8.60;;
9675;SDS011;4876;42.656;23.292;2023-05-19T04:48:41;12.00;;;8.83;;
9675;SDS011;4876;42.656;23.292;2023-05-19T04:51:08;11.30;;;8.30;;
9675;SDS011;4876;42.656;23.292;2023-05-19T04:53:40;10.47;;;8.53;;
9675;SDS011;4876;42.656;23.292;2023-05-19T04:56:07;11.43;;;8.63;;
9675;SDS011;4876;42.656;23.292;2023-05-19T04:58:35;11.83;;;8.50;;
9675;SDS011;4876;42.656;23.292;2023-05-19T05:01:02;11.03;;;8.67;;
9675;SDS011;4876;42.656;23.292;2023-05-19T05:03:29;12.63;;;8.47;;
9675;SDS011;4876;42.656;23.292;2023-05-19T05:05:57;12.97;;;8.73;;
9675;SDS011;4876;42.656;23.292;2023-05-19T05:08:24;9.33;;;8.43;;
9675;SDS011;4876;42.656;23.292;2023-05-19T05:10:52;15.00;;;8.80;;
9675;SDS011;4876;42.656;23.292;2023-05-19T05:13:20;12.63;;;8.47;;
9675;SDS011;4876;42.656;23.292;2023-05-19T05:15:48;14.97;;;9.07;;
9675;SDS011;4876;42.656;23.292;2023-05-19T05:18:16;11.93;;;9.23;;
9675;SDS011;4876;42.656;23.292;2023-05-19T05:20:43;10.43;;;8.43;;
9675;SDS011;4876;42.656;23.292;2023-05-19T05:23:12;10.77;;;9.17;;
9675;SDS011;4876;42.656;23.292;2023-05-19T05:25:42;12.17;;;8.30;;
9675;SDS011;4876;42.656;23.292;2023-05-19T05:28:10;9.67;;;8.33;;
9675;SDS011;4876;42.656;23.292;2023-05-19T05:30:37;12.73;;;8.80;;
9675;SDS011;4876;42.656;23.292;2023-05-19T05:33:05;10.00;;;8.73;;
9675;SDS011;4876;42.656;23.292;2023-05-19T05:35:32;12.17;;;8.37;;
9675;SDS011;4876;42.656;23.292;2023-05-19T05:37:59;13.87;;;9.20;;
9675;SDS011;4876;42.656;23.292;2023-05-19T05:40:26;8.60;;;7.67;;
9675;SDS011;4876;42.656;23.292;2023-05-19T05:42:53;11.70;;;9.03;;
9675;SDS011;4876;42.656;23.292;2023-05-19T05:45:21;9.40;;;8.40;;
9675;SDS011;4876;42.656;23.292;2023-05-19T05:47:48;11.10;;;8.80;;
9675;SDS011;4876;42.656;23.292;2023-05-19T05:50:16;10.00;;;8.67;;
9675;SDS011;4876;42.656;23.292;2023-05-19T05:52:44;10.73;;;8.50;;
9675;SDS011;4876;42.656;23.292;2023-05-19T05:55:12;10.50;;;8.63;;
9675;SDS011;4876;42.656;23.292;2023-05-19T05:57:40;15.77;;;8.10;;
9675;SDS011;4876;42.656;23.292;2023-05-19T06:00:07;13.10;;;8.80;;
9675;SDS011;4876;42.656;23.292;2023-05-19T06:02:40;12.97;;;8.07;;
9675;SDS011;4876;42.656;23.292;2023-05-19T06:05:08;9.33;;;8.13;;
9675;SDS011;4876;42.656;23.292;2023-05-19T06:07:36;9.07;;;7.30;;
9675;SDS011;4876;42.656;23.292;2023-05-19T06:10:04;10.70;;;7.87;;
9675;SDS011;4876;42.656;23.292;2023-05-19T06:12:32;12.27;;;7.63;;
9675;SDS011;4876;42.656;23.292;2023-05-19T06:15:00;12.23;;;7.87;;
9675;SDS011;4876;42.656;23.292;2023-05-19T06:17:28;10.13;;;8.07;;
9675;SDS011;4876;42.656;23.292;2023-05-19T06:19:56;10.60;;;7.53;;
9675;SDS011;4876;42.656;23.292;2023-05-19T06:22:23;12.00;;;7.73;;
9675;SDS011;4876;42.656;23.292;2023-05-19T06:24:50;8.87;;;7.97;;
9675;SDS011;4876;42.656;23.292;2023-05-19T06:27:16;8.40;;;7.47;;
9675;SDS011;4876;42.656;23.292;2023-05-19T06:29:43;13.73;;;6.60;;
9675;SDS011;4876;42.656;23.292;2023-05-19T06:32:10;8.30;;;7.50;;
9675;SDS011;4876;42.656;23.292;2023-05-19T06:34:36;11.27;;;7.70;;
9675;SDS011;4876;42.656;23.292;2023-05-19T06:37:06;9.50;;;6.50;;
9675;SDS011;4876;42.656;23.292;2023-05-19T06:39:32;11.77;;;7.07;;
9675;SDS011;4876;42.656;23.292;2023-05-19T06:41:59;11.43;;;6.77;;
9675;SDS011;4876;42.656;23.292;2023-05-19T06:44:26;12.10;;;7.17;;
9675;SDS011;4876;42.656;23.292;2023-05-19T06:46:55;8.27;;;6.47;;
9675;SDS011;4876;42.656;23.292;2023-05-19T06:49:22;8.20;;;6.50;;
9675;SDS011;4876;42.656;23.292;2023-05-19T06:51:48;7.87;;;7.07;;
9675;SDS011;4876;42.656;23.292;2023-05-19T06:54:17;12.60;;;6.43;;
9675;SDS011;4876;42.656;23.292;2023-05-19T06:56:43;10.00;;;6.67;;
9675;SDS011;4876;42.656;23.292;2023-05-19T06:59:13;11.33;;;5.83;;
9675;SDS011;4876;42.656;23.292;2023-05-19T07:01:40;10.10;;;6.20;;
9675;SDS011;4876;42.656;23.292;2023-05-19T07:04:16;10.20;;;7.07;;
9675;SDS011;4876;42.656;23.292;2023-05-19T07:06:45;8.63;;;6.13;;
9675;SDS011;4876;42.656;23.292;2023-05-19T07:09:14;8.63;;;6.00;;
9675;SDS011;4876;42.656;23.292;2023-05-19T07:11:42;9.07;;;6.63;;
9675;SDS011;4876;42.656;23.292;2023-05-19T07:14:09;11.43;;;6.67;;
9675;SDS011;4876;42.656;23.292;2023-05-19T07:16:36;7.77;;;6.97;;
9675;SDS011;4876;42.656;23.292;2023-05-19T07:19:02;12.43;;;6.40;;
9675;SDS011;4876;42.656;23.292;2023-05-19T07:21:29;7.93;;;6.90;;
9675;SDS011;4876;42.656;23.292;2023-05-19T07:23:56;11.23;;;7.10;;
9675;SDS011;4876;42.656;23.292;2023-05-19T07:26:22;8.30;;;6.77;;
9675;SDS011;4876;42.656;23.292;2023-05-19T07:28:51;13.47;;;6.90;;
9675;SDS011;4876;42.656;23.292;2023-05-19T07:31:18;8.80;;;6.90;;
9675;SDS011;4876;42.656;23.292;2023-05-19T07:33:45;14.40;;;7.07;;
9675;SDS011;4876;42.656;23.292;2023-05-19T07:36:12;8.97;;;7.20;;
9675;SDS011;4876;42.656;23.292;2023-05-19T07:38:39;8.70;;;7.00;;
9675;SDS011;4876;42.656;23.292;2023-05-19T07:41:05;8.20;;;7.27;;
9675;SDS011;4876;42.656;23.292;2023-05-19T07:43:32;7.40;;;6.67;;
9675;SDS011;4876;42.656;23.292;2023-05-19T07:46:00;11.43;;;7.70;;
9675;SDS011;4876;42.656;23.292;2023-05-19T07:48:27;12.17;;;6.90;;
9675;SDS011;4876;42.656;23.292;2023-05-19T07:50:54;12.37;;;7.23;;
9675;SDS011;4876;42.656;23.292;2023-05-19T07:53:21;12.50;;;7.77;;
9675;SDS011;4876;42.656;23.292;2023-05-19T07:55:48;11.50;;;7.63;;
9675;SDS011;4876;42.656;23.292;2023-05-19T07:58:15;12.90;;;8.00;;
9675;SDS011;4876;42.656;23.292;2023-05-19T08:00:42;10.17;;;8.20;;
9675;SDS011;4876;42.656;23.292;2023-05-19T08:03:11;15.90;;;8.17;;
9675;SDS011;4876;42.656;23.292;2023-05-19T08:05:41;10.13;;;7.67;;
9675;SDS011;4876;42.656;23.292;2023-05-19T08:08:08;9.33;;;8.13;;
9675;SDS011;4876;42.656;23.292;2023-05-19T08:10:36;10.70;;;8.03;;
9675;SDS011;4876;42.656;23.292;2023-05-19T08:13:02;9.80;;;8.10;;
9675;SDS011;4876;42.656;23.292;2023-05-19T08:15:29;13.47;;;8.07;;
9675;SDS011;4876;42.656;23.292;2023-05-19T08:17:56;12.17;;;7.80;;
9675;SDS011;4876;42.656;23.292;2023-05-19T08:20:24;13.33;;;8.07;;
9675;SDS011;4876;42.656;23.292;2023-05-19T08:22:51;11.07;;;8.43;;
9675;SDS011;4876;42.656;23.292;2023-05-19T08:25:18;11.10;;;8.67;;
9675;SDS011;4876;42.656;23.292;2023-05-19T08:27:45;12.63;;;8.33;;
9675;SDS011;4876;42.656;23.292;2023-05-19T08:30:12;9.40;;;8.47;;
9675;SDS011;4876;42.656;23.292;2023-05-19T08:32:38;15.53;;;8.70;;
9675;SDS011;4876;42.656;23.292;2023-05-19T08:35:06;19.53;;;9.50;;
9675;SDS011;4876;42.656;23.292;2023-05-19T08:37:35;16.50;;;9.33;;
9675;SDS011;4876;42.656;23.292;2023-05-19T08:40:02;12.07;;;8.20;;
9675;SDS011;4876;42.656;23.292;2023-05-19T08:42:30;12.77;;;8.97;;
9675;SDS011;4876;42.656;23.292;2023-05-19T08:44:58;14.83;;;8.87;;
9675;SDS011;4876;42.656;23.292;2023-05-19T08:47:25;14.63;;;9.10;;
9675;SDS011;4876;42.656;23.292;2023-05-19T08:49:52;15.57;;;9.33;;
9675;SDS011;4876;42.656;23.292;2023-05-19T08:52:26;12.67;;;10.27;;
9675;SDS011;4876;42.656;23.292;2023-05-19T08:55:02;18.13;;;9.83;;
9675;SDS011;4876;42.656;23.292;2023-05-19T08:57:33;16.37;;;9.87;;
9675;SDS011;4876;42.656;23.292;2023-05-19T09:00:01;12.27;;;9.63;;
9675;SDS011;4876;42.656;23.292;2023-05-19T09:02:31;13.43;;;9.10;;
9675;SDS011;4876;42.656;23.292;2023-05-19T09:04:58;17.43;;;10.37;;
9675;SDS011;4876;42.656;23.292;2023-05-19T09:07:26;11.40;;;9.17;;
9675;SDS011;4876;42.656;23.292;2023-05-19T09:09:58;10.57;;;9.47;;
9675;SDS011;4876;42.656;23.292;2023-05-19T09:12:27;10.00;;;8.83;;
9675;SDS011;4876;42.656;23.292;2023-05-19T09:14:53;15.33;;;10.00;;
9675;SDS011;4876;42.656;23.292;2023-05-19T09:17:22;18.67;;;9.77;;
9675;SDS011;4876;42.656;23.292;2023-05-19T09:19:49;10.03;;;8.90;;
9675;SDS011;4876;42.656;23.292;2023-05-19T09:22:16;11.47;;;9.90;;
9675;SDS011;4876;42.656;23.292;2023-05-19T09:24:44;21.53;;;11.30;;
9675;SDS011;4876;42.656;23.292;2023-05-19T09:27:13;14.03;;;10.47;;
9675;SDS011;4876;42.656;23.292;2023-05-19T09:29:42;19.60;;;10.33;;
9675;SDS011;4876;42.656;23.292;2023-05-19T09:32:08;19.87;;;9.87;;
9675;SDS011;4876;42.656;23.292;2023-05-19T09:34:38;17.83;;;10.27;;
9675;SDS011;4876;42.656;23.292;2023-05-19T09:37:06;13.03;;;10.30;;
9675;SDS011;4876;42.656;23.292;2023-05-19T09:39:33;17.70;;;10.90;;
9675;SDS011;4876;42.656;23.292;2023-05-19T09:42:02;14.07;;;9.97;;
9675;SDS011;4876;42.656;23.292;2023-05-19T09:44:30;13.93;;;9.47;;
9675;SDS011;4876;42.656;23.292;2023-05-19T09:47:02;15.30;;;10.13;;
9675;SDS011;4876;42.656;23.292;2023-05-19T09:49:29;13.67;;;10.63;;
9675;SDS011;4876;42.656;23.292;2023-05-19T09:51:57;15.27;;;9.40;;
9675;SDS011;4876;42.656;23.292;2023-05-19T09:54:25;13.20;;;9.43;;
9675;SDS011;4876;42.656;23.292;2023-05-19T09:56:56;12.03;;;10.07;;
9675;SDS011;4876;42.656;23.292;2023-05-19T09:59:27;29.67;;;11.03;;
9675;SDS011;4876;42.656;23.292;2023-05-19T10:01:55;15.87;;;10.20;;
9675;SDS011;4876;42.656;23.292;2023-05-19T10:04:24;14.13;;;10.10;;
9675;SDS011;4876;42.656;23.292;2023-05-19T10:06:52;10.37;;;9.27;;
9675;SDS011;4876;42.656;23.292;2023-05-19T10:09:20;13.03;;;8.53;;
9675;SDS011;4876;42.656;23.292;2023-05-19T10:11:50;14.17;;;10.10;;
9675;SDS011;4876;42.656;23.292;2023-05-19T10:14:18;15.20;;;9.93;;
9675;SDS011;4876;42.656;23.292;2023-05-19T10:16:48;12.57;;;10.07;;
9675;SDS011;4876;42.656;23.292;2023-05-19T10:19:16;20.97;;;10.30;;
9675;SDS011;4876;42.656;23.292;2023-05-19T10:21:47;19.43;;;10.97;;
9675;SDS011;4876;42.656;23.292;2023-05-19T10:24:14;15.53;;;9.80;;
9675;SDS011;4876;42.656;23.292;2023-05-19T10:26:42;11.07;;;9.63;;
9675;SDS011;4876;42.656;23.292;2023-05-19T10:29:11;11.10;;;7.47;;
9675;SDS011;4876;42.656;23.292;2023-05-19T10:31:42;17.73;;;9.47;;
9675;SDS011;4876;42.656;23.292;2023-05-19T10:34:18;10.60;;;9.17;;
9675;SDS011;4876;42.656;23.292;2023-05-19T10:37:02;17.67;;;10.60;;
9675;SDS011;4876;42.656;23.292;2023-05-19T10:39:39;15.30;;;10.43;;
9675;SDS011;4876;42.656;23.292;2023-05-19T10:42:10;15.83;;;10.30;;
9675;SDS011;4876;42.656;23.292;2023-05-19T10:44:44;9.90;;;8.60;;
9675;SDS011;4876;42.656;23.292;2023-05-19T10:47:23;12.17;;;9.17;;
9675;SDS011;4876;42.656;23.292;2023-05-19T10:49:51;12.27;;;9.50;;
9675;SDS011;4876;42.656;23.292;2023-05-19T10:52:20;12.00;;;9.93;;
9675;SDS011;4876;42.656;23.292;2023-05-19T10:54:49;10.57;;;9.43;;
9675;SDS011;4876;42.656;23.292;2023-05-19T10:57:18;16.10;;;10.10;;
9675;SDS011;4876;42.656;23.292;2023-05-19T10:59:50;16.63;;;9.73;;
9675;SDS011;4876;42.656;23.292;2023-05-19T11:02:36;15.63;;;9.97;;
9675;SDS011;4876;42.656;23.292;2023-05-19T11:05:08;10.10;;;8.87;;
9675;SDS011;4876;42.656;23.292;2023-05-19T11:07:38;16.93;;;10.00;;
9675;SDS011;4876;42.656;23.292;2023-05-19T11:10:07;15.17;;;9.80;;
9675;SDS011;4876;42.656;23.292;2023-05-19T11:12:41;11.77;;;8.70;;
9675;SDS011;4876;42.656;23.292;2023-05-19T11:15:12;13.70;;;10.27;;
9675;SDS011;4876;42.656;23.292;2023-05-19T11:17:39;12.73;;;9.57;;
9675;SDS011;4876;42.656;23.292;2023-05-19T11:20:07;18.60;;;9.30;;
9675;SDS011;4876;42.656;23.292;2023-05-19T11:23:02;13.97;;;10.10;;
9675;SDS011;4876;42.656;23.292;2023-05-19T11:25:41;12.93;;;9.50;;
9675;SDS011;4876;42.656;23.292;2023-05-19T11:28:09;12.03;;;10.23;;
9675;SDS011;4876;42.656;23.292;2023-05-19T11:30:37;17.83;;;10.03;;
9675;SDS011;4876;42.656;23.292;2023-05-19T11:33:06;19.57;;;10.13;;
9675;SDS011;4876;42.656;23.292;2023-05-19T11:35:34;12.17;;;10.27;;
9675;SDS011;4876;42.656;23.292;2023-05-19T11:38:05;15.70;;;10.00;;
9675;SDS011;4876;42.656;23.292;2023-05-19T11:40:32;11.77;;;8.83;;
9675;SDS011;4876;42.656;23.292;2023-05-19T11:43:00;10.67;;;8.83;;
9675;SDS011;4876;42.656;23.292;2023-05-19T11:45:27;17.63;;;8.60;;
9675;SDS011;4876;42.656;23.292;2023-05-19T11:47:56;11.43;;;8.77;;
9675;SDS011;4876;42.656;23.292;2023-05-19T11:50:23;12.30;;;7.67;;
9675;SDS011;4876;42.656;23.292;2023-05-19T11:52:51;11.30;;;7.57;;
9675;SDS011;4876;42.656;23.292;2023-05-19T11:55:20;15.10;;;7.50;;
9675;SDS011;4876;42.656;23.292;2023-05-19T11:57:55;14.03;;;8.80;;
9675;SDS011;4876;42.656;23.292;2023-05-19T12:00:22;8.63;;;6.80;;
9675;SDS011;4876;42.656;23.292;2023-05-19T12:02:50;16.07;;;9.50;;
9675;SDS011;4876;42.656;23.292;2023-05-19T12:05:17;11.87;;;8.60;;
9675;SDS011;4876;42.656;23.292;2023-05-19T12:07:45;16.43;;;9.20;;
9675;SDS011;4876;42.656;23.292;2023-05-19T12:10:14;14.53;;;8.67;;
9675;SDS011;4876;42.656;23.292;2023-05-19T12:12:42;11.67;;;8.33;;
9675;SDS011;4876;42.656;23.292;2023-05-19T12:15:10;11.80;;;9.10;;
9675;SDS011;4876;42.656;23.292;2023-05-19T12:17:37;12.73;;;9.27;;
9675;SDS011;4876;42.656;23.292;2023-05-19T12:20:04;11.03;;;8.67;;
9675;SDS011;4876;42.656;23.292;2023-05-19T12:22:32;13.63;;;9.40;;
9675;SDS011;4876;42.656;23.292;2023-05-19T12:24:59;10.37;;;8.63;;
9675;SDS011;4876;42.656;23.292;2023-05-19T12:27:29;10.57;;;8.00;;
9675;SDS011;4876;42.656;23.292;2023-05-19T12:29:57;13.83;;;8.40;;
9675;SDS011;4876;42.656;23.292;2023-05-19T12:32:24;10.90;;;8.60;;
9675;SDS011;4876;42.656;23.292;2023-05-19T12:34:51;10.57;;;8.83;;
9675;SDS011;4876;42.656;23.292;2023-05-19T12:37:19;10.60;;;7.93;;
9675;SDS011;4876;42.656;23.292;2023-05-19T12:39:46;13.17;;;8.90;;
9675;SDS011;4876;42.656;23.292;2023-05-19T12:42:14;10.50;;;8.70;;
9675;SDS011;4876;42.656;23.292;2023-05-19T12:44:41;13.97;;;9.37;;
9675;SDS011;4876;42.656;23.292;2023-05-19T12:47:12;10.70;;;8.43;;
9675;SDS011;4876;42.656;23.292;2023-05-19T12:49:52;11.57;;;7.87;;
9675;SDS011;4876;42.656;23.292;2023-05-19T12:52:19;8.30;;;7.50;;
9675;SDS011;4876;42.656;23.292;2023-05-19T12:54:47;9.90;;;6.60;;
9675;SDS011;4876;42.656;23.292;2023-05-19T12:57:15;12.33;;;7.63;;
9675;SDS011;4876;42.656;23.292;2023-05-19T12:59:42;13.40;;;6.50;;
9675;SDS011;4876;42.656;23.292;2023-05-19T13:02:08;6.93;;;6.20;;
9675;SDS011;4876;42.656;23.292;2023-05-19T13:04:36;7.23;;;6.47;;
9675;SDS011;4876;42.656;23.292;2023-05-19T13:07:03;8.03;;;6.07;;
9675;SDS011;4876;42.656;23.292;2023-05-19T13:09:30;8.87;;;6.13;;
9675;SDS011;4876;42.656;23.292;2023-05-19T13:11:59;12.07;;;6.77;;
9675;SDS011;4876;42.656;23.292;2023-05-19T13:14:25;8.67;;;6.37;;
9675;SDS011;4876;42.656;23.292;2023-05-19T13:16:52;6.70;;;6.00;;
9675;SDS011;4876;42.656;23.292;2023-05-19T13:19:19;10.57;;;6.30;;
9675;SDS011;4876;42.656;23.292;2023-05-19T13:21:47;8.47;;;5.83;;
9675;SDS011;4876;42.656;23.292;2023-05-19T13:24:15;6.97;;;6.27;;
9675;SDS011;4876;42.656;23.292;2023-05-19T13:26:42;9.97;;;6.90;;
9675;SDS011;4876;42.656;23.292;2023-05-19T13:29:08;6.97;;;6.07;;
9675;SDS011;4876;42.656;23.292;2023-05-19T13:31:36;11.57;;;6.70;;
9675;SDS011;4876;42.656;23.292;2023-05-19T13:34:02;11.03;;;6.73;;
9675;SDS011;4876;42.656;23.292;2023-05-19T13:36:32;11.20;;;6.83;;
9675;SDS011;4876;42.656;23.292;2023-05-19T13:39:00;9.10;;;6.70;;
9675;SDS011;4876;42.656;23.292;2023-05-19T13:41:27;9.80;;;7.17;;
9675;SDS011;4876;42.656;23.292;2023-05-19T13:43:55;10.20;;;6.93;;
9675;SDS011;4876;42.656;23.292;2023-05-19T13:46:23;12.83;;;7.07;;
9675;SDS011;4876;42.656;23.292;2023-05-19T13:48:50;9.43;;;7.60;;
9675;SDS011;4876;42.656;23.292;2023-05-19T13:51:17;10.07;;;7.40;;
9675;SDS011;4876;42.656;23.292;2023-05-19T13:53:43;9.83;;;7.60;;
9675;SDS011;4876;42.656;23.292;2023-05-19T13:56:12;11.83;;;8.40;;
9675;SDS011;4876;42.656;23.292;2023-05-19T13:58:38;9.10;;;8.10;;
9675;SDS011;4876;42.656;23.292;2023-05-19T14:01:05;10.53;;;7.53;;
9675;SDS011;4876;42.656;23.292;2023-05-19T14:03:32;14.73;;;8.43;;
9675;SDS011;4876;42.656;23.292;2023-05-19T14:05:59;9.67;;;8.03;;
9675;SDS011;4876;42.656;23.292;2023-05-19T14:08:26;19.60;;;9.17;;
9675;SDS011;4876;42.656;23.292;2023-05-19T14:10:53;12.97;;;8.50;;
9675;SDS011;4876;42.656;23.292;2023-05-19T14:13:22;14.53;;;8.87;;
9675;SDS011;4876;42.656;23.292;2023-05-19T14:15:51;19.17;;;9.03;;
9675;SDS011;4876;42.656;23.292;2023-05-19T14:18:17;12.80;;;8.93;;
9675;SDS011;4876;42.656;23.292;2023-05-19T14:20:44;23.07;;;9.63;;
9675;SDS011;4876;42.656;23.292;2023-05-19T14:23:11;16.33;;;8.53;;
9675;SDS011;4876;42.656;23.292;2023-05-19T14:25:39;12.40;;;8.57;;
9675;SDS011;4876;42.656;23.292;2023-05-19T14:28:06;14.27;;;8.97;;
9675;SDS011;4876;42.656;23.292;2023-05-19T14:30:36;12.97;;;8.70;;
9675;SDS011;4876;42.656;23.292;2023-05-19T14:33:02;14.10;;;8.03;;
9675;SDS011;4876;42.656;23.292;2023-05-19T14:35:29;14.47;;;9.27;;
9675;SDS011;4876;42.656;23.292;2023-05-19T14:37:56;14.97;;;8.17;;
9675;SDS011;4876;42.656;23.292;2023-05-19T14:40:23;15.83;;;8.20;;
9675;SDS011;4876;42.656;23.292;2023-05-19T14:42:49;11.20;;;8.43;;
9675;SDS011;4876;42.656;23.292;2023-05-19T14:45:16;11.53;;;8.00;;
9675;SDS011;4876;42.656;23.292;2023-05-19T14:47:44;10.03;;;8.07;;
9675;SDS011;4876;42.656;23.292;2023-05-19T14:50:12;10.93;;;7.67;;
9675;SDS011;4876;42.656;23.292;2023-05-19T14:52:38;21.80;;;8.47;;
9675;SDS011;4876;42.656;23.292;2023-05-19T14:55:05;15.57;;;7.63;;
9675;SDS011;4876;42.656;23.292;2023-05-19T14:57:32;13.50;;;7.73;;
9675;SDS011;4876;42.656;23.292;2023-05-19T14:59:59;9.50;;;7.77;;